TimeEST,TemperatureF,Dew PointF,Humidity,Sea Level PressureIn,VisibilityMPH,Wind Direction,Wind SpeedMPH,Gust SpeedMPH,PrecipitationIn,Events,Conditions,WindDirDegrees,DateUTC
12:53 AM,73.9,63.0,68,30.21,10.0,East,15.0,-,N/A,,Partly Cloudy,100,2012-11-12 05:53:00
1:53 AM,73.0,63.0,71,30.19,10.0,East,10.4,-,N/A,,Scattered Clouds,90,2012-11-12 06:53:00
2:53 AM,73.9,64.0,71,30.17,9.0,East,12.7,-,N/A,,Scattered Clouds,90,2012-11-12 07:53:00
3:53 AM,73.9,64.9,73,30.16,9.0,East,10.4,19.6,0.00,,Scattered Clouds,90,2012-11-12 08:53:00
4:53 AM,75.0,66.0,73,30.15,9.0,East,15.0,24.2,N/A,,Mostly Cloudy,80,2012-11-12 09:53:00
5:53 AM,73.0,64.9,76,30.17,10.0,East,15.0,-,N/A,,Mostly Cloudy,80,2012-11-12 10:53:00
6:53 AM,71.1,64.9,81,30.19,10.0,ENE,9.2,-,0.00,,Mostly Cloudy,70,2012-11-12 11:53:00
7:43 AM,69.8,66.2,88,30.20,1.8,ENE,18.4,27.6,0.01,Rain,Light Rain,70,2012-11-12 12:43:00
7:50 AM,69.8,66.2,88,30.20,3.0,ENE,16.1,-,0.01,Rain,Light Rain,70,2012-11-12 12:50:00
7:53 AM,70.0,66.9,90,30.20,7.0,ENE,15.0,-,0.01,Rain,Light Rain,70,2012-11-12 12:53:00
8:53 AM,73.0,66.9,81,30.21,8.0,East,20.7,27.6,0.00,,Overcast,100,2012-11-12 13:53:00
9:53 AM,73.9,66.0,76,30.22,9.0,ENE,6.9,-,0.00,,Overcast,70,2012-11-12 14:53:00
10:53 AM,78.1,68.0,71,30.21,7.0,ENE,11.5,-,0.00,,Overcast,70,2012-11-12 15:53:00
11:53 AM,79.0,66.9,66,30.19,5.0,East,12.7,-,0.02,,Haze,90,2012-11-12 16:53:00
12:53 PM,80.1,64.9,60,30.17,9.0,East,12.7,-,N/A,,Partly Cloudy,90,2012-11-12 17:53:00
1:53 PM,80.1,66.0,62,30.16,9.0,East,16.1,23.0,N/A,,Scattered Clouds,80,2012-11-12 18:53:00
2:53 PM,81.0,64.9,58,30.14,9.0,ENE,16.1,-,N/A,,Mostly Cloudy,70,2012-11-12 19:53:00
3:53 PM,79.0,64.9,62,30.14,10.0,East,13.8,-,N/A,,Partly Cloudy,80,2012-11-12 20:53:00
4:53 PM,78.1,64.9,64,30.14,10.0,East,13.8,-,N/A,,Partly Cloudy,80,2012-11-12 21:53:00
5:53 PM,75.9,66.0,71,30.14,10.0,ENE,10.4,-,N/A,,Partly Cloudy,70,2012-11-12 22:53:00
6:53 PM,75.0,64.9,71,30.15,10.0,ENE,10.4,-,N/A,,Partly Cloudy,70,2012-11-12 23:53:00
7:53 PM,75.0,64.9,71,30.16,10.0,ENE,9.2,-,N/A,,Clear,70,2012-11-13 00:53:00
8:53 PM,75.0,66.9,76,30.16,10.0,ENE,9.2,-,0.00,,Mostly Cloudy,70,2012-11-13 01:53:00
9:53 PM,75.0,66.0,73,30.16,9.0,ENE,9.2,-,0.00,,Mostly Cloudy,70,2012-11-13 02:53:00
10:53 PM,75.9,66.0,71,30.16,9.0,ENE,10.4,-,N/A,,Mostly Cloudy,70,2012-11-13 03:53:00
11:53 PM,75.0,64.9,71,30.14,9.0,East,8.1,-,0.00,,Partly Cloudy,80,2012-11-13 04:53:00